TimeEDT,TemperatureF,Dew PointF,Humidity,Sea Level PressureIn,VisibilityMPH,Wind Direction,Wind SpeedMPH,Gust SpeedMPH,PrecipitationIn,Events,Conditions,WindDirDegrees,DateUTC
12:53 AM,62.1,55.0,78,30.21,10.0,Calm,Calm,-,N/A,,Clear,0,2013-08-18 04:53:00
1:53 AM,60.1,55.0,83,30.20,10.0,Calm,Calm,-,N/A,,Clear,0,2013-08-18 05:53:00
2:53 AM,59.0,55.0,87,30.21,8.0,Calm,Calm,-,N/A,,Clear,0,2013-08-18 06:53:00
3:53 AM,55.9,53.1,90,30.21,9.0,Calm,Calm,-,N/A,,Clear,0,2013-08-18 07:53:00
4:53 AM,57.0,53.1,87,30.21,9.0,Calm,Calm,-,N/A,,Clear,0,2013-08-18 08:53:00
5:53 AM,57.0,53.1,87,30.21,9.0,Calm,Calm,-,N/A,,Clear,0,2013-08-18 09:53:00
6:53 AM,55.9,52.0,87,30.22,7.0,Calm,Calm,-,N/A,,Partly Cloudy,0,2013-08-18 10:53:00
7:53 AM,57.0,53.1,87,30.24,7.0,Calm,Calm,-,N/A,,Partly Cloudy,0,2013-08-18 11:53:00
8:53 AM,63.0,55.9,78,30.25,10.0,Calm,Calm,-,N/A,,Clear,0,2013-08-18 12:53:00
9:53 AM,70.0,57.9,65,30.24,10.0,Calm,Calm,-,N/A,,Clear,0,2013-08-18 13:53:00
10:53 AM,75.0,57.0,53,30.24,10.0,East,3.5,-,N/A,,Clear,90,2013-08-18 14:53:00
11:53 AM,75.9,57.0,52,30.23,10.0,East,8.1,-,N/A,,Partly Cloudy,90,2013-08-18 15:53:00
12:53 PM,75.0,55.0,50,30.22,10.0,SSE,4.6,-,N/A,,Scattered Clouds,150,2013-08-18 16:53:00
1:53 PM,79.0,54.0,42,30.20,10.0,East,4.6,-,N/A,,Scattered Clouds,100,2013-08-18 17:53:00
2:53 PM,79.0,54.0,42,30.18,10.0,Calm,Calm,-,N/A,,Scattered Clouds,0,2013-08-18 18:53:00
3:53 PM,81.0,55.0,41,30.16,10.0,Variable,3.5,-,N/A,,Scattered Clouds,0,2013-08-18 19:53:00
4:53 PM,81.0,55.0,41,30.14,10.0,East,8.1,-,N/A,,Partly Cloudy,100,2013-08-18 20:53:00
5:53 PM,80.1,55.9,43,30.13,10.0,South,3.5,-,N/A,,Partly Cloudy,190,2013-08-18 21:53:00
6:53 PM,80.1,55.9,43,30.13,10.0,ESE,4.6,-,N/A,,Partly Cloudy,110,2013-08-18 22:53:00
7:53 PM,77.0,57.9,52,30.13,10.0,SE,4.6,-,N/A,,Partly Cloudy,140,2013-08-18 23:53:00
8:53 PM,72.0,59.0,64,30.13,10.0,SSE,3.5,-,N/A,,Scattered Clouds,150,2013-08-19 00:53:00
9:53 PM,71.1,57.0,61,30.14,10.0,West,5.8,-,N/A,,Clear,270,2013-08-19 01:53:00
10:53 PM,69.1,55.9,63,30.13,10.0,Calm,Calm,-,N/A,,Clear,0,2013-08-19 02:53:00
11:53 PM,66.0,57.0,73,30.14,10.0,Calm,Calm,-,N/A,,Clear,0,2013-08-19 03:53:00